Time;durP1;ratioP1;P1;durP2;ratioP2;P2;SDS_P1;SDS_P2;PMS_P1;PMS_P2;Temp;Humidity;BMP_temperature;BMP_pressure;BME280_temperature;BME280_humidity;BME280_pressure;Samples;Min_cycle;Max_cycle;Signal;HPM_P1;HPM_P2
2022/07/08 00:01:54;;;;;;;7.95;7.15;;;;;;;16.11;100.00;100206.59;6183685;23;20322;-82
2022/07/08 00:04:20;;;;;;;7.80;6.97;;;;;;;16.22;100.00;100206.88;6183783;23;20088;-82
2022/07/08 00:06:46;;;;;;;10.98;7.43;;;;;;;16.24;100.00;100210.78;6183497;23;20028;-82
2022/07/08 00:09:12;;;;;;;7.95;7.15;;;;;;;16.33;100.00;100204.38;6184133;23;20437;-82
2022/07/08 00:11:39;;;;;;;10.93;7.40;;;;;;;16.26;100.00;100215.88;6183542;23;20068;-82
2022/07/08 00:14:04;;;;;;;13.25;7.07;;;;;;;16.22;100.00;100215.28;6183811;23;20085;-82
2022/07/08 00:16:30;;;;;;;10.73;6.80;;;;;;;16.31;100.00;100207.63;6184117;23;20032;-82
2022/07/08 00:18:56;;;;;;;9.45;6.07;;;;;;;16.28;100.00;100214.19;6183447;23;20021;-82
2022/07/08 00:21:21;;;;;;;7.00;6.15;;;;;;;16.20;100.00;100207.38;6183722;23;20020;-82
2022/07/08 00:23:47;;;;;;;7.95;5.88;;;;;;;16.19;100.00;100211.41;6183588;23;20457;-82
2022/07/08 00:26:13;;;;;;;10.68;6.30;;;;;;;16.11;100.00;100215.00;6158223;23;20017;-82
2022/07/08 00:28:39;;;;;;;10.20;6.35;;;;;;;16.01;100.00;100216.28;6183800;23;20334;-82
2022/07/08 00:31:04;;;;;;;9.02;6.00;;;;;;;16.01;100.00;100216.28;6157161;23;20464;-82
2022/07/08 00:33:30;;;;;;;9.98;5.65;;;;;;;16.21;100.00;100224.94;6183189;23;20019;-82
2022/07/08 00:35:55;;;;;;;10.18;6.18;;;;;;;16.04;100.00;100226.53;6183429;23;20060;-82
2022/07/08 00:38:21;;;;;;;18.08;6.53;;;;;;;16.18;100.00;100220.25;6183400;23;20005;-82
2022/07/08 00:40:46;;;;;;;9.82;5.82;;;;;;;16.19;100.00;100213.44;6157545;23;20013;-83
2022/07/08 00:43:25;;;;;;;6.70;6.00;;;;;;;16.30;100.00;100202.50;6183636;23;20021;-82
2022/07/08 00:45:50;;;;;;;10.65;5.95;;;;;;;16.36;100.00;100203.41;6183336;23;20013;-82
2022/07/08 00:48:16;;;;;;;8.38;5.53;;;;;;;16.38;100.00;100206.50;6156964;23;20024;-82
2022/07/08 00:50:41;;;;;;;9.90;5.60;;;;;;;16.14;100.00;100208.47;6183650;23;20005;-82
2022/07/08 00:53:07;;;;;;;10.85;6.15;;;;;;;16.20;100.00;100206.59;6131945;23;20021;-82
2022/07/08 00:55:33;;;;;;;8.30;6.57;;;;;;;16.25;100.00;100203.94;6183637;23;20013;-82
2022/07/08 00:57:59;;;;;;;11.77;6.57;;;;;;;16.21;100.00;100208.16;6183719;23;20064;-82
2022/07/08 01:00:25;;;;;;;8.52;7.63;;;;;;;15.81;100.00;100202.81;6183356;23;20096;-82
2022/07/08 01:02:51;;;;;;;12.45;8.00;;;;;;;15.92;100.00;100199.50;6182876;23;20047;-83
2022/07/08 01:05:16;;;;;;;11.27;7.15;;;;;;;16.09;100.00;100206.31;6183273;23;20512;-82
2022/07/08 01:07:43;;;;;;;8.55;6.60;;;;;;;16.11;100.00;100195.41;6183157;23;20005;-82
2022/07/08 01:10:09;;;;;;;8.63;7.25;;;;;;;16.10;100.00;100194.63;6157321;23;20020;-83
2022/07/08 01:12:35;;;;;;;10.07;7.28;;;;;;;16.07;100.00;100197.59;6183033;23;20017;-82
2022/07/08 01:15:00;;;;;;;10.27;6.80;;;;;;;16.01;100.00;100196.69;6183053;23;20005;-83
2022/07/08 01:17:40;;;;;;;7.13;5.78;;;;;;;16.14;100.00;100188.88;6182701;23;20039;-83
2022/07/08 01:20:06;;;;;;;6.60;6.00;;;;;;;16.08;100.00;100201.97;6183423;23;20017;-83
2022/07/08 01:22:31;;;;;;;7.70;6.10;;;;;;;16.06;100.00;100201.63;6183702;23;20012;-82
2022/07/08 01:24:57;;;;;;;6.53;5.85;;;;;;;16.14;100.00;100197.25;6183432;23;20310;-83
2022/07/08 01:27:22;;;;;;;10.73;6.05;;;;;;;16.23;100.00;100195.22;6183164;23;20009;-82
2022/07/08 01:29:48;;;;;;;9.95;6.65;;;;;;;15.80;100.00;100190.84;6182911;23;20013;-83
2022/07/08 01:32:13;;;;;;;8.10;6.30;;;;;;;15.58;100.00;100201.41;6182590;23;20017;-83
2022/07/08 01:34:39;;;;;;;13.18;6.60;;;;;;;15.69;100.00;100201.72;6182593;23;20012;-83
2022/07/08 01:37:04;;;;;;;7.90;6.68;;;;;;;15.62;100.00;100179.66;6183406;23;20017;-83
2022/07/08 01:39:30;;;;;;;10.38;6.88;;;;;;;15.79;100.00;100194.88;6183524;23;20039;-83
2022/07/08 01:41:55;;;;;;;8.07;6.38;;;;;;;15.71;100.00;100187.28;6156121;23;20017;-83
2022/07/08 01:44:21;;;;;;;9.48;6.32;;;;;;;15.73;100.00;100182.75;6183007;23;20433;-83
2022/07/08 01:46:47;;;;;;;7.35;6.35;;;;;;;15.72;100.00;100186.81;6182924;23;20021;-82
2022/07/08 01:49:14;;;;;;;7.35;6.10;;;;;;;15.79;100.00;100186.50;6183172;23;20009;-82
2022/07/08 01:51:40;;;;;;;7.10;6.20;;;;;;;15.72;100.00;100184.03;6183245;23;20020;-82
2022/07/08 01:54:06;;;;;;;8.90;6.40;;;;;;;15.70;100.00;100180.13;6182240;23;20039;-82
2022/07/08 01:56:31;;;;;;;7.78;6.05;;;;;;;15.90;100.00;100179.63;6183543;23;20521;-82
2022/07/08 01:58:57;;;;;;;7.30;5.50;;;;;;;15.88;100.00;100190.50;6156520;23;20005;-82
2022/07/08 02:01:22;;;;;;;10.00;5.63;;;;;;;15.68;100.00;100191.78;6155472;23;20023;-82
2022/07/08 02:03:48;;;;;;;8.73;5.68;;;;;;;15.68;100.00;100183.41;6182912;23;20032;-83
2022/07/08 02:06:13;;;;;;;7.03;6.13;;;;;;;15.72;100.00;100186.03;6183274;23;20088;-83
2022/07/08 02:08:39;;;;;;;6.47;5.82;;;;;;;15.76;100.00;100179.03;6156305;23;20040;-83
2022/07/08 02:13:48;;;;;;;8.20;5.95;;;;;;;15.74;100.00;100192.69;6182730;23;20021;-83
2022/07/08 02:16:14;;;;;;;11.40;6.20;;;;;;;15.66;100.00;100187.91;6183027;23;20095;-83
2022/07/08 02:18:40;;;;;;;7.30;6.45;;;;;;;15.77;100.00;100185.41;6182253;23;20005;-83
2022/07/08 02:21:05;;;;;;;6.88;6.18;;;;;;;15.69;100.00;100187.72;6154055;23;20486;-82
2022/07/08 02:23:31;;;;;;;7.30;5.95;;;;;;;15.66;100.00;100191.47;6156417;23;20013;-82
2022/07/08 02:25:57;;;;;;;7.15;5.60;;;;;;;15.73;100.00;100191.16;6182467;23;20063;-83
2022/07/08 02:28:23;;;;;;;5.72;5.22;;;;;;;15.57;100.00;100177.50;6182917;23;20019;-83
2022/07/08 02:30:48;;;;;;;9.73;5.93;;;;;;;15.45;100.00;100192.38;6182254;23;20076;-83
2022/07/08 02:33:14;;;;;;;7.82;6.50;;;;;;;15.56;100.00;100184.34;6182672;23;20298;-83
2022/07/08 02:35:40;;;;;;;7.10;6.40;;;;;;;15.70;100.00;100186.50;6183157;23;20013;-82
2022/07/08 02:38:05;;;;;;;8.73;6.47;;;;;;;15.60;100.00;100187.00;6182161;23;20001;-83
2022/07/08 02:40:31;;;;;;;6.90;6.20;;;;;;;15.55;100.00;100180.00;6183210;23;20036;-83
2022/07/08 02:42:56;;;;;;;8.82;6.70;;;;;;;15.39;100.00;100192.25;6182071;23;20087;-83
2022/07/08 02:45:22;;;;;;;8.07;6.45;;;;;;;15.27;100.00;100172.84;6167385;23;20013;-82
2022/07/08 02:47:47;;;;;;;9.70;7.55;;;;;;;15.18;100.00;100184.78;6182542;23;20013;-82
2022/07/08 02:50:13;;;;;;;9.27;7.18;;;;;;;15.19;100.00;100191.94;6181336;23;20012;-82
2022/07/08 02:52:38;;;;;;;7.30;6.57;;;;;;;15.24;100.00;100182.94;6182070;23;20432;-82
2022/07/08 02:55:04;;;;;;;7.95;7.22;;;;;;;15.38;100.00;100187.13;6182755;23;20016;-82
2022/07/08 02:57:30;;;;;;;8.50;7.10;;;;;;;15.38;100.00;100181.53;6182142;23;20319;-82
2022/07/08 02:59:55;;;;;;;7.93;7.13;;;;;;;15.31;100.00;100182.63;6180793;23;20322;-83
2022/07/08 03:02:21;;;;;;;9.20;7.25;;;;;;;15.36;100.00;100195.97;6180745;23;20020;-83
2022/07/08 03:04:47;;;;;;;8.65;6.70;;;;;;;15.26;100.00;100185.25;6182228;23;20042;-82
2022/07/08 03:07:12;;;;;;;9.82;8.82;;;;;;;15.29;100.00;100189.91;6182766;23;20009;-82
2022/07/08 03:09:38;;;;;;;9.55;8.30;;;;;;;15.26;100.00;100197.22;6182455;23;20063;-82
2022/07/08 03:12:04;;;;;;;7.88;7.10;;;;;;;15.18;100.00;100195.19;6182204;23;20435;-82
2022/07/08 03:14:29;;;;;;;8.57;7.05;;;;;;;15.12;100.00;100191.47;6183125;23;20421;-83
2022/07/08 03:16:55;;;;;;;10.77;7.20;;;;;;;15.17;100.00;100200.00;6182635;23;20013;-82
2022/07/08 03:19:20;;;;;;;7.88;7.10;;;;;;;15.22;100.00;100201.41;6181734;23;20036;-82
2022/07/08 03:21:46;;;;;;;10.77;7.28;;;;;;;15.22;100.00;100206.97;6181578;23;20341;-82
2022/07/08 03:24:12;;;;;;;8.73;7.47;;;;;;;15.24;100.00;100201.72;6182932;23;20048;-82
2022/07/08 03:26:37;;;;;;;9.48;7.65;;;;;;;15.20;100.00;100198.31;6182418;23;20005;-82
2022/07/08 03:29:03;;;;;;;8.85;7.90;;;;;;;15.16;100.00;100192.88;6180845;23;20016;-82
2022/07/08 03:31:28;;;;;;;9.65;7.60;;;;;;;15.11;100.00;100210.25;6182011;23;20441;-82
2022/07/08 03:33:54;;;;;;;8.95;8.05;;;;;;;15.07;100.00;100211.63;6182347;23;20008;-83
2022/07/08 03:36:19;;;;;;;8.38;7.55;;;;;;;15.09;100.00;100211.94;6182282;23;20453;-82
2022/07/08 03:38:45;;;;;;;10.65;8.20;;;;;;;15.16;100.00;100220.81;6180730;23;20016;-82
2022/07/08 03:41:19;;;;;;;9.13;8.20;;;;;;;15.17;100.00;100227.16;6181386;23;20013;-83
2022/07/08 03:43:49;;;;;;;9.77;7.75;;;;;;;15.17;100.00;100224.34;6181533;23;20017;-82
2022/07/08 03:46:15;;;;;;;8.80;7.93;;;;;;;15.15;100.00;100224.84;6180229;23;20063;-82
2022/07/08 03:48:40;;;;;;;8.77;7.80;;;;;;;15.10;100.00;100225.44;6156077;23;20416;-83
2022/07/08 03:51:06;;;;;;;10.15;8.25;;;;;;;15.18;100.00;100220.34;6181883;23;20017;-82
2022/07/08 03:53:32;;;;;;;10.00;8.75;;;;;;;15.15;100.00;100221.25;6179809;23;20324;-82
2022/07/08 03:55:58;;;;;;;9.50;8.10;;;;;;;15.16;100.00;100228.41;6179818;23;20084;-82
2022/07/08 03:58:23;;;;;;;10.02;8.98;;;;;;;15.15;100.00;100229.66;6181042;23;20019;-83
2022/07/08 04:00:49;;;;;;;10.13;8.77;;;;;;;15.16;100.00;100239.59;6181856;23;20445;-82
2022/07/08 04:03:14;;;;;;;10.60;9.43;;;;;;;15.12;100.00;100230.59;6179634;23;20024;-82
2022/07/08 04:05:40;;;;;;;9.63;8.63;;;;;;;15.12;100.00;100230.59;6181843;23;20044;-82
2022/07/08 04:08:06;;;;;;;14.25;9.10;;;;;;;15.14;100.00;100230.88;6181673;23;20017;-82
2022/07/08 04:10:31;;;;;;;10.88;9.82;;;;;;;15.16;100.00;100243.16;6182400;23;20011;-82
2022/07/08 04:12:57;;;;;;;9.85;8.95;;;;;;;15.18;100.00;100228.72;6181274;23;20083;-82
2022/07/08 04:15:22;;;;;;;14.32;9.98;;;;;;;15.16;100.00;100236.78;6182230;23;20020;-82
2022/07/08 04:17:48;;;;;;;12.75;10.40;;;;;;;15.13;100.00;100237.69;6181792;23;20017;-82
2022/07/08 04:20:14;;;;;;;10.60;9.60;;;;;;;15.09;100.00;100245.47;6181007;23;20021;-82
2022/07/08 04:22:40;;;;;;;10.57;9.57;;;;;;;15.17;100.00;100239.09;6181804;23;20091;-82
2022/07/08 04:25:07;;;;;;;11.02;9.90;;;;;;;15.19;100.00;100244.25;6155236;23;20013;-82
2022/07/08 04:27:33;;;;;;;11.70;10.18;;;;;;;15.20;100.00;100249.38;6181645;23;20008;-83
2022/07/08 04:29:59;;;;;;;12.77;9.68;;;;;;;15.11;100.00;100240.19;6181581;23;20067;-82
2022/07/08 04:32:24;;;;;;;10.63;9.30;;;;;;;15.22;100.00;100251.69;6181597;23;20089;-82
2022/07/08 04:34:51;;;;;;;10.95;9.95;;;;;;;15.23;100.00;100256.06;6181791;23;19997;-82
2022/07/08 04:37:18;;;;;;;10.68;9.68;;;;;;;15.21;100.00;100259.28;6182811;23;20456;-82
2022/07/08 04:39:43;;;;;;;10.90;9.90;;;;;;;15.24;100.00;100257.63;6183570;23;20426;-83
2022/07/08 04:42:09;;;;;;;9.73;8.70;;;;;;;15.26;100.00;100263.50;6183808;23;20092;-83
2022/07/08 04:44:34;;;;;;;10.63;9.60;;;;;;;15.39;100.00;100266.94;6181413;23;20037;-83
2022/07/08 04:47:00;;;;;;;14.13;8.98;;;;;;;15.34;100.00;100259.94;6183645;23;20484;-83
2022/07/08 04:49:25;;;;;;;10.60;9.57;;;;;;;15.34;100.00;100264.75;6183513;23;19998;-82
2022/07/08 04:51:51;;;;;;;10.68;9.77;;;;;;;15.35;100.00;100278.28;6183825;23;20048;-82
2022/07/08 04:54:17;;;;;;;10.65;9.55;;;;;;;15.35;100.00;100258.72;6184030;23;20013;-83
2022/07/08 04:56:42;;;;;;;10.38;8.85;;;;;;;15.44;100.00;100273.94;6183670;23;20064;-82
2022/07/08 04:59:08;;;;;;;10.00;9.00;;;;;;;15.40;100.00;100274.88;6183185;23;20520;-82
2022/07/08 05:01:34;;;;;;;9.43;8.55;;;;;;;15.40;100.00;100274.09;6183522;23;20013;-82
2022/07/08 05:03:59;;;;;;;9.65;8.75;;;;;;;15.46;100.00;100266.63;6182023;23;20080;-82
2022/07/08 05:06:25;;;;;;;10.32;9.20;;;;;;;15.51;100.00;100279.25;6183620;23;20041;-82
2022/07/08 05:08:51;;;;;;;9.65;8.75;;;;;;;15.56;100.00;100287.81;6182702;23;20008;-82
2022/07/08 05:11:16;;;;;;;8.98;8.05;;;;;;;15.58;100.00;100279.72;6183512;23;20025;-82
2022/07/08 05:13:42;;;;;;;8.68;7.82;;;;;;;15.59;100.00;100292.47;6182770;23;20056;-81
2022/07/08 05:16:07;;;;;;;9.43;8.40;;;;;;;15.63;100.00;100281.13;6182665;23;20044;-82
2022/07/08 05:18:33;;;;;;;8.70;8.00;;;;;;;15.68;100.00;100295.25;6182053;23;20084;-82
2022/07/08 05:20:58;;;;;;;8.95;8.10;;;;;;;15.68;100.00;100284.06;6182631;23;20001;-82
2022/07/08 05:23:24;;;;;;;9.13;7.53;;;;;;;15.77;100.00;100286.84;6181933;23;20499;-82
2022/07/08 05:25:49;;;;;;;8.25;7.53;;;;;;;15.80;100.00;100291.53;6181963;23;20005;-81
2022/07/08 05:28:15;;;;;;;9.27;8.27;;;;;;;15.96;100.00;100298.03;6181391;23;20021;-81
2022/07/08 05:30:40;;;;;;;8.68;7.88;;;;;;;15.93;100.00;100299.00;6182664;23;20016;-82
2022/07/08 05:33:06;;;;;;;9.50;8.60;;;;;;;15.98;100.00;100306.72;6182501;23;20012;-82
2022/07/08 05:35:32;;;;;;;9.27;8.13;;;;;;;15.95;100.00;100302.06;6181529;23;20017;-82
2022/07/08 05:37:57;;;;;;;8.50;7.68;;;;;;;15.93;100.00;100299.00;6182973;23;20009;-82
2022/07/08 05:40:23;;;;;;;9.52;8.55;;;;;;;15.98;100.00;100306.72;6183103;23;20067;-81
2022/07/08 05:42:49;;;;;;;9.18;8.27;;;;;;;15.97;100.00;100305.19;6181391;23;20005;-82
2022/07/08 05:45:14;;;;;;;9.35;8.45;;;;;;;16.05;100.00;100312.81;6183154;23;20096;-82
2022/07/08 05:47:40;;;;;;;10.50;9.05;;;;;;;16.13;100.00;100307.66;6183356;23;20029;-82
2022/07/08 05:50:06;;;;;;;9.40;8.40;;;;;;;16.18;100.00;100309.81;6156010;23;20022;-82
2022/07/08 05:52:32;;;;;;;11.60;8.68;;;;;;;16.30;100.00;100317.25;6181957;23;20008;-82
2022/07/08 05:54:58;;;;;;;9.18;8.23;;;;;;;16.43;100.00;100312.25;6182907;23;20491;-82
2022/07/08 05:57:23;;;;;;;10.07;9.07;;;;;;;16.42;100.00;100319.09;6156722;23;20500;-82
2022/07/08 05:59:50;;;;;;;9.73;7.88;;;;;;;16.59;100.00;100316.75;6182561;23;20067;-83
2022/07/08 06:02:50;;;;;;;10.93;8.40;;;;;;;16.69;100.00;100321.88;6181860;23;20021;-82
2022/07/08 06:05:17;;;;;;;10.82;7.70;;;;;;;16.81;100.00;100308.91;6181259;23;20083;-82
2022/07/08 06:07:43;;;;;;;8.98;7.30;;;;;;;16.79;100.00;100303.78;6182099;23;20082;-80
2022/07/08 06:10:08;;;;;;;11.02;7.93;;;;;;;16.76;100.00;100299.13;6182951;23;20456;-80
2022/07/08 06:12:34;;;;;;;8.40;7.63;;;;;;;16.87;100.00;100309.03;6157037;23;20024;-80
2022/07/08 06:14:59;;;;;;;11.40;8.20;;;;;;;17.06;100.00;100316.13;6182621;23;20012;-80
2022/07/08 06:17:25;;;;;;;8.80;7.82;;;;;;;17.18;100.00;100315.13;6183518;23;20092;-80
2022/07/08 06:19:51;;;;;;;8.18;7.40;;;;;;;17.17;100.00;100310.75;6131821;23;20043;-80
2022/07/08 06:22:16;;;;;;;8.07;7.28;;;;;;;17.27;100.00;100320.66;6182813;23;20017;-81
2022/07/08 06:24:42;;;;;;;8.35;6.90;;;;;;;17.31;100.00;100314.88;6183084;23;20458;-81
2022/07/08 06:27:07;;;;;;;7.75;6.35;;;;;;;17.45;100.00;100316.97;6182965;23;20013;-80
2022/07/08 06:30:22;;;;;;;7.70;6.35;;;;;;;17.61;100.00;100311.75;6183381;23;20487;-81
2022/07/08 06:32:50;;;;;;;8.00;7.20;;;;;;;17.66;100.00;100307.50;6182796;23;20233;-80
2022/07/08 06:35:16;;;;;;;7.43;6.72;;;;;;;17.78;100.00;100302.88;6155679;23;20319;-80
2022/07/08 06:37:41;;;;;;;7.10;6.35;;;;;;;17.87;100.00;100300.00;6182461;23;20457;-80
2022/07/08 06:40:07;;;;;;;6.97;6.28;;;;;;;17.86;100.00;100290.81;6181705;23;20009;-80
2022/07/08 06:42:33;;;;;;;7.10;6.50;;;;;;;17.96;100.00;100302.72;6130954;23;20009;-81
2022/07/08 06:45:03;;;;;;;7.05;6.10;;;;;;;17.91;100.00;100297.78;6167918;23;20008;-81
2022/07/08 06:47:29;;;;;;;6.72;6.13;;;;;;;18.01;100.00;100296.44;6211890;23;20009;-81
2022/07/08 06:49:58;;;;;;;6.55;5.85;;;;;;;18.13;100.00;100296.16;6184409;23;20393;-80
2022/07/08 06:52:24;;;;;;;7.07;5.93;;;;;;;18.13;100.00;100303.81;6210734;23;20016;-80
2022/07/08 06:54:50;;;;;;;7.13;5.95;;;;;;;18.13;100.00;100293.38;6210926;23;20063;-81
2022/07/08 06:57:16;;;;;;;6.85;6.25;;;;;;;18.20;100.00;100297.81;6210796;23;20388;-82
2022/07/08 06:59:41;;;;;;;6.60;5.80;;;;;;;18.37;100.00;100298.09;6184916;23;20012;-82
2022/07/08 07:02:07;;;;;;;6.93;5.57;;;;;;;18.43;100.00;100294.16;6183158;23;20008;-82
2022/07/08 07:04:33;;;;;;;7.10;5.78;;;;;;;18.52;100.00;100302.50;6212122;23;20111;-82
2022/07/08 07:06:58;;;;;;;7.10;5.57;;;;;;;18.43;100.00;100294.16;6211946;23;20083;-82
2022/07/08 07:09:24;;;;;;;7.25;5.63;;;;;;;18.64;100.00;100292.22;6212256;23;20032;-82
2022/07/08 07:11:49;;;;;;;6.85;5.65;;;;;;;19.01;100.00;100293.31;6212523;23;20044;-82
2022/07/08 07:14:15;;;;;;;8.05;5.53;;;;;;;19.41;98.39;100289.75;6211841;23;20160;-82
2022/07/08 07:16:41;;;;;;;11.35;6.97;;;;;;;19.67;97.31;100295.50;6212346;23;20032;-82
2022/07/08 07:19:07;;;;;;;5.57;4.90;;;;;;;19.47;98.33;100293.47;6211806;23;20014;-82
2022/07/08 07:21:36;;;;;;;8.48;5.20;;;;;;;19.82;95.92;100289.75;6186442;23;20044;-81
2022/07/08 07:24:01;;;;;;;6.20;4.63;;;;;;;20.01;92.47;100303.06;6211872;23;20086;-82
2022/07/08 07:26:27;;;;;;;5.20;4.70;;;;;;;20.04;94.61;100298.47;6212586;23;20437;-81
2022/07/08 07:28:52;;;;;;;5.97;5.00;;;;;;;19.70;93.48;100302.16;6212054;23;20087;-80
2022/07/08 07:31:18;;;;;;;6.20;4.45;;;;;;;19.92;92.29;100300.41;6211810;23;20218;-80
2022/07/08 07:33:44;;;;;;;7.68;4.70;;;;;;;19.88;91.08;100305.47;6185138;23;20080;-80
2022/07/08 07:36:12;;;;;;;5.50;4.40;;;;;;;19.88;92.00;100310.31;6211957;23;20036;-81
2022/07/08 07:38:38;;;;;;;5.55;4.63;;;;;;;19.47;89.97;100304.72;6211694;23;20004;-80
2022/07/08 07:41:06;;;;;;;4.57;4.18;;;;;;;19.32;93.02;100320.84;6185237;23;20421;-80
2022/07/08 07:43:31;;;;;;;5.22;4.32;;;;;;;19.34;92.66;100312.69;6184758;23;20004;-80
2022/07/08 07:45:57;;;;;;;4.82;4.32;;;;;;;19.50;92.37;100305.75;6188253;23;20060;-81
2022/07/08 07:48:22;;;;;;;4.38;3.97;;;;;;;19.46;91.06;100319.25;6181527;23;20381;-81
2022/07/08 07:50:48;;;;;;;4.55;3.85;;;;;;;19.38;90.05;100324.50;6181508;23;20075;-80
2022/07/08 07:53:13;;;;;;;5.05;3.80;;;;;;;19.37;90.58;100319.38;6181603;23;20024;-81
2022/07/08 07:55:39;;;;;;;4.43;3.60;;;;;;;19.21;89.39;100326.31;6181998;23;20370;-80
2022/07/08 07:58:05;;;;;;;3.80;3.40;;;;;;;19.20;87.96;100330.41;6181236;23;20059;-81
2022/07/08 08:00:30;;;;;;;4.03;3.40;;;;;;;19.34;87.84;100325.97;6155378;23;20078;-80
2022/07/08 08:02:56;;;;;;;10.32;4.05;;;;;;;19.45;88.32;100324.13;6181631;23;20442;-80
2022/07/08 08:05:21;;;;;;;3.83;3.42;;;;;;;19.37;87.96;100334.19;6155311;23;20013;-80
2022/07/08 08:07:47;;;;;;;4.95;3.90;;;;;;;19.48;89.91;100328.78;6181591;23;20009;-80
2022/07/08 08:10:14;;;;;;;4.00;3.60;;;;;;;19.48;90.67;100334.41;6158812;23;20088;-80
2022/07/08 08:12:41;;;;;;;4.55;4.07;;;;;;;19.49;93.09;100333.13;6185800;23;20005;-81
2022/07/08 08:15:14;;;;;;;5.55;3.50;;;;;;;19.68;90.88;100319.56;6137793;23;20024;-80
2022/07/08 08:17:40;;;;;;;3.72;3.30;;;;;;;20.14;86.08;100330.81;6161202;23;20013;-81
2022/07/08 08:20:08;;;;;;;3.75;3.38;;;;;;;20.41;84.34;100329.59;6159620;23;20024;-80
2022/07/08 08:22:34;;;;;;;4.07;3.50;;;;;;;20.40;83.49;100328.81;6136532;23;20012;-81
2022/07/08 08:25:00;;;;;;;5.68;3.60;;;;;;;20.15;84.13;100340.03;6137163;23;20406;-80
2022/07/08 08:27:46;;;;;;;4.78;3.30;;;;;;;20.08;86.00;100341.25;6160710;23;20013;-81
2022/07/08 08:30:12;;;;;;;5.78;3.20;;;;;;;20.03;86.69;100337.13;6186792;23;20013;-81
2022/07/08 08:32:38;;;;;;;4.22;3.15;;;;;;;19.91;86.08;100329.81;6161914;23;20008;-81
2022/07/08 08:35:04;;;;;;;3.28;2.97;;;;;;;19.85;85.38;100340.25;6160023;23;20013;-80
2022/07/08 08:37:46;;;;;;;4.22;3.08;;;;;;;20.36;85.63;100331.09;6158112;23;20032;-82
2022/07/08 08:40:12;;;;;;;4.40;2.70;;;;;;;21.02;83.74;100330.13;6180408;23;20017;-81
2022/07/08 08:42:39;;;;;;;6.22;2.92;;;;;;;20.73;84.39;100338.84;6157036;23;20466;-81
2022/07/08 08:45:05;;;;;;;5.82;2.97;;;;;;;20.87;84.08;100337.94;6163638;23;20020;-80
2022/07/08 08:47:32;;;;;;;3.95;2.72;;;;;;;20.66;82.78;100333.69;6183245;23;20017;-81
2022/07/08 08:52:55;;;;;;;2.55;2.30;;;;;;;20.53;84.89;100336.13;6182983;23;20016;-80
2022/07/08 08:55:28;;;;;;;3.10;2.47;;;;;;;20.14;86.00;100344.16;6183348;23;20357;-81
2022/07/08 08:58:04;;;;;;;4.22;2.50;;;;;;;20.32;85.65;100344.63;6183694;23;20507;-81
2022/07/08 09:00:32;;;;;;;4.32;2.50;;;;;;;20.05;85.30;100342.25;6182851;23;20020;-81
2022/07/08 09:02:58;;;;;;;4.38;2.90;;;;;;;20.14;85.29;100344.91;6185227;23;20009;-81
2022/07/08 09:05:24;;;;;;;4.68;2.60;;;;;;;20.67;84.94;100352.09;6180468;23;20398;-81
2022/07/08 09:07:50;;;;;;;3.50;2.20;;;;;;;21.11;82.03;100349.66;6183915;23;20521;-81
2022/07/08 09:10:26;;;;;;;3.53;1.95;;;;;;;21.28;81.25;100341.31;6181341;23;20023;-81
2022/07/08 09:13:14;;;;;;;2.35;2.15;;;;;;;20.91;79.55;100358.97;6172578;23;20013;-81
2022/07/08 09:15:45;;;;;;;4.80;2.30;;;;;;;20.59;81.81;100359.47;6180367;23;20067;-81
2022/07/08 09:18:20;;;;;;;4.40;2.58;;;;;;;20.47;81.00;100356.56;6179188;23;20017;-81
2022/07/08 09:20:50;;;;;;;4.07;2.30;;;;;;;20.52;81.31;100348.66;6179138;23;20460;-81
2022/07/08 09:23:20;;;;;;;3.08;2.35;;;;;;;20.39;80.95;100347.00;6178850;23;20087;-81
2022/07/08 09:25:53;;;;;;;4.32;2.25;;;;;;;20.10;81.59;100349.22;6181200;23;20021;-82
2022/07/08 09:28:34;;;;;;;3.67;2.50;;;;;;;20.48;82.81;100346.06;6155198;23;20021;-81
2022/07/08 09:31:02;;;;;;;8.05;2.50;;;;;;;20.60;80.64;100330.78;6182717;23;20036;-81
2022/07/08 09:33:28;;;;;;;3.67;2.60;;;;;;;20.60;80.03;100342.06;6184145;23;20052;-81
2022/07/08 09:36:00;;;;;;;3.20;2.72;;;;;;;20.79;80.10;100356.56;6183148;23;20017;-81
2022/07/08 09:38:37;;;;;;;4.40;2.40;;;;;;;20.77;78.21;100347.84;6184041;23;20024;-81
2022/07/08 09:41:12;;;;;;;6.53;2.40;;;;;;;20.49;78.42;100356.06;6157872;23;20007;-81
2022/07/08 09:43:46;;;;;;;4.25;2.60;;;;;;;20.97;79.15;100356.22;6181357;23;20096;-81
2022/07/08 18:57:54;;;;;;;4.43;2.55;;;;;;;17.86;66.80;100563.03;5095098;27;20441;-82
2022/07/08 19:00:19;;;;;;;4.90;2.58;;;;;;;17.84;66.82;100564.72;5102999;28;20043;-86
2022/07/08 19:02:45;;;;;;;4.60;2.40;;;;;;;17.79;66.56;100566.19;5095546;28;20040;-86
2022/07/08 19:05:10;;;;;;;6.85;2.80;;;;;;;17.76;66.93;100563.50;5100566;28;20032;-86
2022/07/08 19:07:36;;;;;;;5.85;3.25;;;;;;;17.74;66.97;100572.44;5099224;28;20024;-85
2022/07/08 19:10:02;;;;;;;4.93;2.40;;;;;;;17.66;66.96;100571.22;5104791;28;20024;-85
2022/07/08 19:12:28;;;;;;;5.28;2.47;;;;;;;17.60;67.36;100576.66;5098609;28;20055;-85
2022/07/08 19:14:53;;;;;;;5.45;2.50;;;;;;;17.57;67.45;100586.03;5104077;28;20036;-86
2022/07/08 19:17:20;;;;;;;5.20;2.63;;;;;;;17.60;67.08;100579.47;5099942;28;20042;-81
2022/07/08 19:19:46;;;;;;;4.90;2.10;;;;;;;17.52;67.69;100583.06;5104084;28;20036;-86
2022/07/08 19:22:15;;;;;;;7.13;2.90;;;;;;;17.50;67.50;100586.34;5095019;28;20531;-86
2022/07/08 19:24:40;;;;;;;5.10;2.15;;;;;;;17.44;67.28;100588.22;5107503;28;20031;-87
2022/07/08 19:27:07;;;;;;;7.72;2.35;;;;;;;17.42;67.51;100598.34;5108412;28;20031;-87
2022/07/08 19:29:32;;;;;;;3.60;2.47;;;;;;;17.39;67.51;100600.06;5107412;28;20039;-87
2022/07/08 19:31:58;;;;;;;3.50;2.20;;;;;;;17.38;67.44;100595.72;5108050;28;20038;-86
2022/07/08 19:34:24;;;;;;;5.53;2.40;;;;;;;17.37;67.36;100604.59;5107154;28;20016;-85
2022/07/08 19:36:50;;;;;;;4.15;2.45;;;;;;;17.32;67.71;100596.81;5106116;28;20146;-80
2022/07/08 19:39:15;;;;;;;4.20;2.30;;;;;;;17.26;67.69;100605.09;5102852;28;20127;-84
2022/07/08 19:41:41;;;;;;;7.10;2.60;;;;;;;17.20;67.72;100602.13;5106757;28;20493;-84
2022/07/08 19:44:07;;;;;;;5.70;2.40;;;;;;;17.21;67.54;100611.31;5106731;28;20056;-84
2022/07/08 19:46:33;;;;;;;6.07;2.70;;;;;;;17.22;67.96;100621.28;5107395;28;20237;-84
2022/07/08 19:48:59;;;;;;;5.43;2.42;;;;;;;17.20;67.43;100620.97;5104042;28;20024;-85
2022/07/08 19:51:24;;;;;;;5.65;2.33;;;;;;;17.18;67.51;100615.06;5101368;28;20034;-84
2022/07/08 19:53:50;;;;;;;5.35;2.33;;;;;;;17.17;67.62;100613.50;5084769;28;20023;-85
2022/07/08 19:56:17;;;;;;;6.55;2.60;;;;;;;17.12;67.55;100626.13;5106040;28;20067;-85
2022/07/08 19:58:42;;;;;;;5.85;2.15;;;;;;;17.10;67.55;100622.22;5105415;28;20040;-79
2022/07/08 20:01:08;;;;;;;6.80;2.25;;;;;;;17.07;67.23;100620.34;5104364;28;20028;-79
2022/07/08 20:03:33;;;;;;;3.22;2.28;;;;;;;17.08;67.70;100624.72;5104236;28;20040;-79
2022/07/08 20:05:59;;;;;;;6.60;2.50;;;;;;;17.01;67.96;100630.63;5105136;28;20040;-79
2022/07/08 20:08:24;;;;;;;5.18;2.30;;;;;;;17.01;67.54;100630.63;5097609;28;20382;-79
2022/07/08 20:10:50;;;;;;;5.95;2.40;;;;;;;16.97;67.29;100632.81;5083623;28;20044;-79
2022/07/08 20:13:15;;;;;;;4.68;2.20;;;;;;;16.98;67.39;100626.75;5087454;28;20405;-79
2022/07/08 20:15:41;;;;;;;3.78;2.13;;;;;;;16.98;67.06;100634.38;5086353;28;20079;-84
2022/07/08 20:18:07;;;;;;;4.22;2.20;;;;;;;16.97;67.25;100632.81;5088517;28;20070;-79
2022/07/08 20:20:33;;;;;;;6.03;2.00;;;;;;;16.92;67.55;100625.81;5072865;28;20040;-79
2022/07/08 20:22:58;;;;;;;3.38;2.10;;;;;;;16.92;67.66;100636.22;5067221;28;20039;-80
2022/07/08 20:25:24;;;;;;;7.35;2.35;;;;;;;16.91;67.38;100629.06;5088589;28;20044;-79
2022/07/08 20:27:50;;;;;;;4.68;2.55;;;;;;;16.91;67.52;100623.44;5089157;28;20044;-79
2022/07/08 20:30:18;;;;;;;5.20;2.40;;;;;;;16.87;67.74;100629.22;5085637;28;20112;-80
2022/07/08 20:32:43;;;;;;;3.40;2.10;;;;;;;16.81;68.05;100628.28;5088772;28;20028;-80
2022/07/08 20:35:09;;;;;;;3.95;2.08;;;;;;;16.77;67.93;100636.06;5090595;28;21799;-79